Terminal Aerodrome Forecast
Issued by NWS Boston, MA

Current Version | Previous Version | Text Only | Print | Product List | Glossary On
Versions: 1 2 3 4 5 6 7 8 9 10 11 12 13 14 15 16 17 18 19 20 21 22 23 24 25 26 27 28 29 30 31 32 33 34 35 36 37 38 39 40 41
847
FTUS41 KBOX 081740 AAB
TAFBOS
TAF AMD
KBOS 081740Z 0818/0924 02017G25KT 1/2SM SN VV010
      TEMPO 0818/0821 1/4SM +SN VV008
     FM090000 01015G20KT 1SM -SN OVC010
     FM090600 35008KT 2SM -SN OVC015
     FM090900 35007KT P6SM VCSH OVC015
     FM091800 02007KT P6SM OVC015=

USA.gov is the U.S. government's official web portal to all federal, state and local government web resources and services.